createdAt,value
2018-06-05T00:01:46.009Z,75.00
2018-06-05T00:04:16.653Z,73.69
2018-06-05T00:06:46.565Z,73.05
2018-06-05T00:09:16.904Z,72.72
2018-06-05T00:11:47.149Z,71.09
2018-06-05T00:14:20.541Z,71.16
2018-06-05T00:16:50.687Z,72.01
2018-06-05T00:19:20.790Z,72.71
2018-06-05T00:21:50.863Z,73.28
2018-06-05T00:24:21.925Z,72.80
2018-06-05T00:26:52.033Z,72.52
2018-06-05T00:29:22.378Z,72.42
2018-06-05T00:31:52.494Z,71.25
2018-06-05T00:34:22.635Z,72.13
2018-06-05T00:36:52.734Z,71.95
2018-06-05T00:39:22.978Z,72.11
2018-06-05T00:41:53.055Z,72.08
2018-06-05T00:44:23.195Z,72.03
2018-06-05T00:46:53.336Z,71.82
2018-06-05T00:49:23.518Z,71.41
2018-06-05T00:52:05.154Z,71.42
2018-06-05T00:54:35.038Z,72.16
2018-06-05T00:57:05.142Z,71.74
2018-06-05T00:59:35.271Z,72.46
2018-06-05T01:02:05.402Z,71.78
2018-06-05T01:04:35.728Z,72.46
2018-06-05T01:07:05.850Z,71.85
2018-06-05T01:09:35.779Z,72.43
2018-06-05T01:12:05.871Z,72.30
2018-06-05T01:14:36.665Z,71.89
2018-06-05T01:17:06.822Z,72.25
2018-06-05T01:19:36.983Z,72.72
2018-06-05T01:22:07.416Z,73.40
2018-06-05T01:24:37.528Z,72.67
2018-06-05T01:27:11.709Z,72.04
2018-06-05T01:29:42.032Z,71.87
2018-06-05T01:32:12.274Z,72.90
2018-06-05T01:34:42.443Z,71.96
2018-06-05T01:37:12.704Z,72.25
2018-06-05T01:39:43.142Z,72.22
2018-06-05T01:42:13.254Z,72.55
2018-06-05T01:44:43.458Z,72.63
2018-06-05T01:47:13.694Z,72.86
2018-06-05T01:49:44.122Z,71.89
2018-06-05T01:52:14.198Z,72.62
2018-06-05T01:54:44.685Z,72.13
2018-06-05T01:57:15.034Z,72.44
2018-06-05T01:59:45.167Z,72.51
2018-06-05T02:02:15.497Z,72.30
2018-06-05T02:04:45.350Z,72.74
2018-06-05T02:07:15.734Z,71.95
2018-06-05T02:09:45.902Z,72.63
2018-06-05T02:12:16.143Z,71.99
2018-06-05T02:14:47.006Z,71.89
2018-06-05T02:17:17.346Z,72.61
2018-06-05T02:19:47.530Z,72.88
2018-06-05T02:22:17.750Z,72.27
2018-06-05T02:24:48.383Z,72.64
2018-06-05T02:27:18.907Z,73.27
2018-06-05T02:29:49.420Z,72.82
2018-06-05T02:32:19.462Z,73.68
2018-06-05T02:34:49.623Z,73.12
2018-06-05T02:37:19.740Z,73.58
2018-06-05T02:39:49.899Z,74.05
2018-06-05T02:42:19.995Z,72.98
2018-06-05T02:44:50.354Z,72.78
2018-06-05T02:47:20.574Z,72.34
2018-06-05T02:49:50.643Z,72.41
2018-06-05T02:52:20.908Z,73.41
2018-06-05T02:54:51.138Z,73.48
2018-06-05T02:57:21.282Z,73.73
2018-06-05T02:59:51.589Z,73.62
2018-06-05T03:02:21.831Z,73.04
2018-06-05T03:04:51.939Z,73.14
2018-06-05T03:07:22.193Z,73.99
2018-06-05T03:09:52.365Z,73.05
2018-06-05T03:12:22.382Z,73.45
2018-06-05T03:14:52.645Z,73.51
2018-06-05T03:17:22.826Z,73.92
2018-06-05T03:19:53.016Z,74.01
2018-06-05T03:22:23.270Z,74.34
2018-06-05T03:24:53.554Z,74.43
2018-06-05T03:27:24.227Z,75.06
2018-06-05T03:29:54.422Z,74.72
2018-06-05T03:32:24.680Z,74.69
2018-06-05T03:34:54.804Z,74.80
2018-06-05T03:37:25.496Z,74.13
2018-06-05T03:39:55.748Z,75.20
2018-06-05T03:42:28.594Z,74.68
2018-06-05T03:44:58.926Z,74.34
2018-06-05T03:47:29.292Z,74.08
2018-06-05T03:50:02.140Z,73.97
2018-06-05T03:52:32.588Z,74.68
2018-06-05T03:55:03.586Z,74.42
2018-06-05T03:57:33.699Z,74.12
2018-06-05T04:00:04.238Z,73.77
2018-06-05T04:02:34.835Z,73.69
2018-06-05T04:05:04.951Z,74.17
2018-06-05T04:07:35.066Z,73.82
2018-06-05T04:10:05.414Z,73.67
2018-06-05T04:12:35.546Z,74.30
2018-06-05T04:15:06.327Z,73.77
2018-06-05T04:17:36.480Z,73.81
2018-06-05T04:20:06.631Z,73.61
2018-06-05T04:22:36.972Z,74.30
2018-06-05T04:25:07.482Z,73.71
2018-06-05T04:27:40.540Z,73.80
2018-06-05T04:30:10.676Z,73.31
2018-06-05T04:32:40.778Z,73.99
2018-06-05T04:35:10.919Z,73.41
2018-06-05T04:37:41.113Z,73.23
2018-06-05T04:40:11.268Z,73.09
2018-06-05T04:42:42.001Z,73.60
2018-06-05T04:45:12.649Z,73.24
2018-06-05T04:47:42.850Z,73.44
2018-06-05T04:50:13.165Z,72.31
2018-06-05T04:52:43.335Z,73.20
2018-06-05T04:55:13.502Z,72.54
2018-06-05T04:57:43.718Z,72.88
2018-06-05T05:00:13.883Z,72.67
2018-06-05T05:02:44.259Z,73.28
2018-06-05T05:05:14.499Z,73.30
2018-06-05T05:07:44.726Z,72.90
2018-06-05T05:10:15.009Z,73.19
2018-06-05T05:12:45.358Z,72.54
2018-06-05T05:15:15.833Z,72.78
2018-06-05T05:17:46.138Z,72.49
2018-06-05T05:20:16.338Z,71.76
2018-06-05T05:22:46.628Z,71.79
2018-06-05T05:25:16.897Z,72.20
2018-06-05T05:27:47.103Z,71.87
2018-06-05T05:30:17.305Z,71.86
2018-06-05T05:32:47.755Z,70.88
2018-06-05T05:35:18.331Z,71.41
2018-06-05T05:37:48.416Z,71.07
2018-06-05T05:40:18.621Z,70.45
2018-06-05T05:42:48.686Z,70.42
2018-06-05T05:45:18.603Z,70.50
2018-06-05T05:47:48.675Z,70.33
2018-06-05T05:50:19.046Z,70.23
2018-06-05T05:52:49.430Z,71.02
2018-06-05T05:55:19.856Z,71.00
2018-06-05T05:57:50.194Z,70.45
2018-06-05T06:00:20.405Z,71.06
2018-06-05T06:02:50.583Z,70.07
2018-06-05T06:05:20.738Z,70.43
2018-06-05T06:07:50.902Z,69.81
2018-06-05T06:10:20.990Z,69.75
2018-06-05T06:12:51.354Z,69.38
2018-06-05T06:15:21.531Z,69.37
2018-06-05T06:17:51.962Z,69.61
2018-06-05T06:20:21.974Z,69.43
2018-06-05T06:22:52.124Z,69.45
2018-06-05T06:25:22.520Z,68.44
2018-06-05T06:27:52.778Z,68.02
2018-06-05T06:30:23.062Z,68.64
2018-06-05T06:32:53.774Z,68.29
2018-06-05T06:35:24.026Z,68.07
2018-06-05T06:37:54.183Z,68.07
2018-06-05T06:40:24.491Z,67.29
2018-06-05T06:42:54.804Z,67.57
2018-06-05T06:45:25.165Z,66.56
2018-06-05T06:47:55.320Z,66.66
2018-06-05T06:50:25.695Z,66.00
2018-06-05T06:52:55.790Z,66.29
2018-06-05T06:55:26.365Z,65.69
2018-06-05T06:57:56.551Z,65.61
2018-06-05T07:00:27.119Z,65.27
2018-06-05T07:02:57.523Z,65.09
2018-06-05T07:05:27.634Z,65.19
2018-06-05T07:07:57.956Z,64.57
2018-06-05T07:10:28.215Z,64.40
2018-06-05T07:12:58.550Z,63.92
2018-06-05T07:15:29.026Z,64.00
2018-06-05T07:17:59.391Z,63.03
2018-06-05T07:20:29.504Z,62.89
2018-06-05T07:22:59.697Z,63.74
2018-06-05T07:25:30.073Z,63.53
2018-06-05T07:28:00.468Z,63.16
2018-06-05T07:30:30.668Z,62.06
2018-06-05T07:33:01.082Z,62.11
2018-06-05T07:35:31.500Z,62.18
2018-06-05T07:38:01.793Z,61.05
2018-06-05T07:40:32.102Z,61.43
2018-06-05T07:43:02.387Z,60.92
2018-06-05T07:45:32.514Z,61.13
2018-06-05T07:48:02.887Z,60.20
2018-06-05T07:50:33.143Z,60.26
2018-06-05T07:53:03.327Z,60.34
2018-06-05T07:55:33.349Z,60.62
2018-06-05T07:58:03.743Z,60.31
2018-06-05T08:00:34.082Z,60.01
2018-06-05T08:03:04.411Z,59.03
2018-06-05T08:05:34.719Z,58.43
2018-06-05T08:08:04.826Z,58.40
2018-06-05T08:10:34.987Z,58.18
2018-06-05T08:13:05.048Z,58.43
2018-06-05T08:15:35.114Z,57.31
2018-06-05T08:18:05.289Z,56.87
2018-06-05T08:20:35.549Z,56.93
2018-06-05T08:23:06.150Z,55.79
2018-06-05T08:25:36.418Z,55.31
2018-06-05T08:28:08.418Z,55.45
2018-06-05T08:30:38.681Z,55.23
2018-06-05T08:33:08.587Z,52.22
2018-06-05T08:35:38.722Z,52.57
2018-06-05T08:38:09.122Z,53.41
2018-06-05T08:40:39.338Z,52.50
2018-06-05T08:43:09.614Z,53.10
2018-06-05T08:45:40.030Z,52.39
2018-06-05T08:48:10.141Z,51.20
2018-06-05T08:50:40.329Z,51.14
2018-06-05T08:53:10.404Z,51.16
2018-06-05T08:55:40.677Z,51.07
2018-06-05T08:58:10.733Z,51.60
2018-06-05T09:00:40.943Z,51.54
2018-06-05T09:03:13.739Z,48.81
2018-06-05T09:05:44.124Z,47.92
2018-06-05T09:08:14.298Z,48.00
2018-06-05T09:10:44.306Z,48.06
2018-06-05T09:13:15.072Z,48.41
2018-06-05T09:15:45.303Z,48.79
2018-06-05T09:18:15.517Z,48.72
2018-06-05T09:20:45.664Z,48.12
2018-06-05T09:23:15.716Z,50.59
2018-06-05T09:25:46.131Z,49.67
2018-06-05T09:28:16.219Z,50.15
2018-06-05T09:30:46.651Z,49.03
2018-06-05T09:33:17.174Z,49.82
2018-06-05T09:35:47.398Z,48.86
2018-06-05T09:38:17.524Z,48.94
2018-06-05T09:40:47.394Z,48.01
2018-06-05T09:43:17.651Z,47.80
2018-06-05T09:45:48.109Z,47.98
2018-06-05T09:48:18.098Z,48.19
2018-06-05T09:50:48.308Z,47.54
2018-06-05T09:53:18.649Z,46.42
2018-06-05T09:55:48.684Z,45.85
2018-06-05T09:58:18.951Z,44.53
2018-06-05T10:00:52.666Z,44.27
2018-06-05T10:03:22.649Z,44.49
2018-06-05T10:05:52.730Z,43.93
2018-06-05T10:08:22.951Z,43.20
2018-06-05T10:10:53.185Z,42.37
2018-06-05T10:13:23.530Z,42.40
2018-06-05T10:15:54.231Z,42.37
2018-06-05T10:18:24.452Z,41.43
2018-06-05T10:20:54.472Z,41.57
2018-06-05T10:23:24.708Z,41.00
2018-06-05T10:25:54.648Z,40.55
2018-06-05T10:28:25.246Z,40.59
2018-06-05T10:30:55.447Z,39.70
2018-06-05T10:33:25.789Z,39.01
2018-06-05T10:35:55.976Z,38.20
2018-06-05T10:38:26.274Z,38.32
2018-06-05T10:40:56.490Z,38.95
2018-06-05T10:43:26.650Z,38.83
2018-06-05T10:45:56.733Z,37.11
2018-06-05T10:48:26.706Z,38.65
2018-06-05T10:50:56.972Z,37.74
2018-06-05T10:53:27.076Z,38.21
2018-06-05T10:55:57.286Z,37.06
2018-06-05T10:58:27.536Z,36.54
2018-06-05T11:00:58.754Z,35.20
2018-06-05T11:03:28.896Z,35.56
2018-06-05T11:05:59.240Z,34.84
2018-06-05T11:08:29.403Z,34.22
2018-06-05T11:10:59.535Z,35.25
2018-06-05T11:13:30.060Z,34.42
2018-06-05T11:16:00.192Z,35.54
2018-06-05T11:18:30.362Z,34.63
2018-06-05T11:21:00.588Z,34.29
2018-06-05T11:23:31.462Z,34.44
2018-06-05T11:26:01.694Z,34.13
2018-06-05T11:28:32.067Z,34.88
2018-06-05T11:31:02.260Z,34.64
2018-06-05T11:33:32.349Z,33.86
2018-06-05T11:36:02.543Z,34.48
2018-06-05T11:38:32.602Z,34.59
2018-06-05T11:41:03.202Z,33.66
2018-06-05T11:43:33.158Z,33.86
2018-06-05T11:46:03.266Z,32.79
2018-06-05T11:48:39.924Z,31.69
2018-06-05T11:51:10.387Z,32.08
2018-06-05T11:53:40.810Z,31.74
2018-06-05T11:56:17.795Z,31.16
2018-06-05T11:58:48.004Z,32.32
2018-06-05T12:01:18.218Z,31.62
2018-06-05T12:03:48.592Z,32.15
2018-06-05T12:06:18.650Z,32.89
2018-06-05T12:08:48.822Z,32.10
2018-06-05T12:11:19.197Z,31.76
2018-06-05T12:13:49.341Z,31.40
2018-06-05T12:16:20.170Z,31.36
2018-06-05T12:18:50.397Z,31.51
2018-06-05T12:21:20.839Z,32.36
2018-06-05T12:23:51.093Z,32.75
2018-06-05T12:26:21.443Z,33.93
2018-06-05T12:28:51.671Z,33.06
2018-06-05T12:31:21.999Z,34.14
2018-06-05T12:33:52.215Z,34.20
2018-06-05T12:36:22.622Z,34.93
2018-06-05T12:38:52.870Z,35.80
2018-06-05T12:41:23.157Z,36.36
2018-06-05T12:43:53.222Z,36.42
2018-06-05T12:46:23.382Z,35.88
2018-06-05T12:48:53.573Z,36.13
2018-06-05T12:51:23.933Z,36.23
2018-06-05T12:53:54.145Z,36.15
2018-06-05T12:56:24.489Z,36.71
2018-06-05T12:58:54.717Z,36.04
2018-06-05T13:01:25.052Z,35.33
2018-06-05T13:03:55.496Z,34.90
2018-06-05T13:06:25.854Z,34.92
2018-06-05T13:08:56.119Z,35.29
2018-06-05T13:11:26.534Z,34.80
2018-06-05T13:13:56.702Z,35.64
2018-06-05T13:16:27.042Z,34.88
2018-06-05T13:18:57.159Z,34.61
2018-06-05T13:21:27.354Z,34.99
2018-06-05T13:23:57.687Z,35.25
2018-06-05T13:26:27.882Z,34.41
2018-06-05T13:28:58.079Z,35.12
2018-06-05T13:31:28.282Z,35.28
2018-06-05T13:33:58.405Z,37.25
2018-06-05T13:36:28.504Z,37.05
2018-06-05T13:38:58.731Z,36.17
2018-06-05T13:41:28.877Z,35.43
2018-06-05T13:43:59.113Z,35.22
2018-06-05T13:46:29.828Z,34.36
2018-06-05T13:48:59.975Z,36.61
2018-06-05T13:51:30.172Z,38.07
2018-06-05T13:54:00.457Z,36.74
2018-06-05T13:56:31.024Z,36.39
2018-06-05T13:59:01.111Z,35.70
2018-06-05T14:01:31.337Z,33.57
2018-06-05T14:04:01.588Z,32.43
2018-06-05T14:06:32.124Z,31.85
2018-06-05T14:09:02.556Z,33.00
2018-06-05T14:11:32.541Z,31.88
2018-06-05T14:14:02.834Z,32.58
2018-06-05T14:16:32.894Z,31.52
2018-06-05T14:19:03.268Z,31.83
2018-06-05T14:21:33.554Z,31.61
2018-06-05T14:24:03.876Z,30.62
2018-06-05T14:26:33.851Z,29.34
2018-06-05T14:29:04.220Z,29.56
2018-06-05T14:31:34.394Z,28.75
2018-06-05T14:34:04.659Z,29.06
2018-06-05T14:36:34.986Z,29.86
2018-06-05T14:39:11.841Z,30.17
2018-06-05T14:41:42.167Z,30.24
2018-06-05T14:44:12.609Z,30.22
2018-06-05T14:46:42.786Z,30.86
2018-06-05T14:49:12.937Z,30.47
2018-06-05T14:51:43.014Z,30.96
2018-06-05T14:54:13.293Z,30.97
2018-06-05T14:56:43.539Z,31.21
2018-06-05T14:59:13.786Z,30.64
2018-06-05T15:01:43.971Z,29.83
2018-06-05T15:04:13.987Z,28.92
2018-06-05T15:06:44.196Z,29.94
2018-06-05T15:09:14.506Z,30.11
2018-06-05T15:11:44.566Z,30.24
2018-06-05T15:14:14.968Z,30.24
2018-06-05T15:16:45.258Z,31.17
2018-06-05T15:19:15.422Z,33.20
2018-06-05T15:21:45.513Z,32.28
2018-06-05T15:24:15.653Z,33.16
2018-06-05T15:26:45.881Z,32.84
2018-06-05T15:29:16.206Z,32.56
2018-06-05T15:31:46.376Z,35.72
2018-06-05T15:34:16.439Z,35.23
2018-06-05T15:36:46.657Z,35.09
2018-06-05T15:39:16.687Z,36.30
2018-06-05T15:41:47.095Z,36.59
2018-06-05T15:44:17.241Z,36.36
2018-06-05T15:46:47.464Z,36.67
2018-06-05T15:49:17.550Z,36.83
2018-06-05T15:51:47.798Z,36.50
2018-06-05T15:54:17.802Z,37.67
2018-06-05T15:56:48.231Z,37.09
2018-06-05T15:59:18.457Z,38.17
2018-06-05T16:01:48.473Z,39.02
2018-06-05T16:04:18.886Z,37.95
2018-06-05T16:06:49.166Z,38.86
2018-06-05T16:09:19.344Z,39.30
2018-06-05T16:11:49.582Z,39.78
2018-06-05T16:14:19.846Z,39.96
2018-06-05T16:16:49.918Z,40.79
2018-06-05T16:19:20.078Z,39.67
2018-06-05T16:21:50.286Z,38.72
2018-06-05T16:24:20.370Z,38.30
2018-06-05T16:26:50.696Z,38.47
2018-06-05T16:29:20.819Z,39.69
2018-06-05T16:31:51.039Z,38.94
2018-06-05T16:34:21.154Z,39.16
2018-06-05T16:36:51.379Z,41.75
2018-06-05T16:39:21.656Z,41.60
2018-06-05T16:41:52.962Z,42.52
2018-06-05T16:44:23.082Z,42.55
2018-06-05T16:46:53.096Z,43.31
2018-06-05T16:49:23.226Z,42.92
2018-06-05T16:51:53.159Z,43.85
2018-06-05T16:54:23.342Z,43.93
2018-06-05T16:56:53.535Z,44.01
2018-06-05T16:59:23.796Z,43.49
2018-06-05T17:01:54.019Z,43.92
2018-06-05T17:04:24.270Z,43.52
2018-06-05T17:06:54.591Z,43.75
2018-06-05T17:09:24.474Z,43.17
2018-06-05T17:11:54.666Z,43.29
2018-06-05T17:14:24.936Z,42.91
2018-06-05T17:16:55.134Z,42.62
2018-06-05T17:19:25.280Z,43.45
2018-06-05T17:21:55.431Z,42.80
2018-06-05T17:24:25.825Z,43.42
2018-06-05T17:26:55.951Z,43.45
2018-06-05T17:29:26.154Z,43.41
2018-06-05T17:31:56.546Z,44.01
2018-06-05T17:34:26.606Z,45.10
2018-06-05T17:36:56.726Z,45.35
2018-06-05T17:39:26.957Z,44.99
2018-06-05T17:41:57.150Z,45.34
2018-06-05T17:44:27.499Z,46.19
2018-06-05T17:46:57.732Z,46.44
2018-06-05T17:49:27.785Z,46.55
2018-06-05T17:51:58.016Z,47.56
2018-06-05T17:54:28.283Z,47.76
2018-06-05T17:56:58.730Z,48.34
2018-06-05T17:59:28.810Z,48.07
2018-06-05T18:01:58.970Z,47.71
2018-06-05T18:04:29.090Z,48.27
2018-06-05T18:06:59.406Z,48.62
2018-06-05T18:09:29.283Z,49.02
2018-06-05T18:11:59.763Z,49.61
2018-06-05T18:14:30.163Z,49.41
2018-06-05T18:17:00.713Z,50.28
2018-06-05T18:19:37.413Z,49.58
2018-06-05T18:22:07.750Z,49.78
2018-06-05T18:24:37.895Z,49.86
2018-06-05T18:27:08.339Z,50.32
2018-06-05T18:29:38.492Z,50.21
2018-06-05T18:32:09.127Z,50.81
2018-06-05T18:34:39.315Z,50.62
2018-06-05T18:37:09.532Z,51.06
2018-06-05T18:39:40.082Z,51.90
2018-06-05T18:42:10.313Z,51.25
2018-06-05T18:44:40.555Z,52.53
2018-06-05T18:47:10.762Z,52.30
2018-06-05T18:49:40.955Z,53.00
2018-06-05T18:52:11.090Z,52.10
2018-06-05T18:54:41.433Z,52.55
2018-06-05T18:57:11.518Z,52.93
2018-06-05T18:59:41.909Z,52.37
2018-06-05T19:02:12.198Z,52.59
2018-06-05T19:04:42.484Z,53.58
2018-06-05T19:07:12.763Z,53.39
2018-06-05T19:09:43.352Z,53.44
2018-06-05T19:12:13.717Z,54.27
2018-06-05T19:14:44.145Z,53.48
2018-06-05T19:17:14.212Z,54.15
2018-06-05T19:19:44.597Z,54.86
2018-06-05T19:22:14.713Z,54.40
2018-06-05T19:24:44.954Z,54.66
2018-06-05T19:27:15.348Z,55.35
2018-06-05T19:29:46.019Z,55.48
2018-06-05T19:32:17.046Z,55.41
2018-06-05T19:34:47.364Z,55.93
2018-06-05T19:37:17.527Z,56.69
2018-06-05T19:39:48.100Z,55.96
2018-06-05T19:42:18.431Z,56.25
2018-06-05T19:44:48.539Z,56.40
2018-06-05T19:47:18.833Z,57.16
2018-06-05T19:49:49.162Z,56.91
2018-06-05T19:52:19.407Z,56.82
2018-06-05T19:54:49.924Z,57.80
2018-06-05T19:57:20.155Z,58.03
2018-06-05T19:59:50.420Z,58.05
2018-06-05T20:02:20.773Z,58.38
2018-06-05T20:04:52.079Z,57.92
2018-06-05T20:07:22.278Z,58.98
2018-06-05T20:09:52.629Z,58.84
2018-06-05T20:12:23.008Z,58.94
2018-06-05T20:14:53.387Z,59.36
2018-06-05T20:17:23.679Z,59.08
2018-06-05T20:19:53.819Z,60.02
2018-06-05T20:22:24.952Z,59.75
2018-06-05T20:24:55.256Z,59.76
2018-06-05T20:27:25.386Z,59.72
2018-06-05T20:29:55.607Z,59.86
2018-06-05T20:32:26.763Z,60.42
2018-06-05T20:34:57.226Z,60.09
2018-06-05T20:37:28.015Z,60.09
2018-06-05T20:39:58.335Z,59.64
2018-06-05T20:42:29.156Z,60.14
2018-06-05T20:44:59.671Z,59.42
2018-06-05T20:47:30.741Z,60.23
2018-06-05T20:50:00.975Z,60.10
2018-06-05T20:52:31.094Z,59.34
2018-06-05T20:55:01.907Z,59.37
2018-06-05T20:57:32.406Z,59.23
2018-06-05T21:00:02.834Z,60.00
2018-06-05T21:02:33.211Z,59.88
2018-06-05T21:05:03.561Z,60.11
2018-06-05T21:07:34.062Z,59.75
2018-06-05T21:10:04.479Z,59.37
2018-06-05T21:12:34.867Z,59.82
2018-06-05T21:15:05.109Z,59.80
2018-06-05T21:17:35.360Z,60.11
2018-06-05T21:20:06.797Z,60.52
2018-06-05T21:22:37.209Z,60.45
2018-06-05T21:25:07.714Z,60.12
2018-06-05T21:27:38.215Z,60.50
2018-06-05T21:30:08.903Z,60.80
2018-06-05T21:32:39.926Z,61.72
2018-06-05T21:35:10.194Z,61.87
2018-06-05T21:37:40.565Z,61.85
2018-06-05T21:40:10.842Z,62.55
2018-06-05T21:42:41.075Z,62.81
2018-06-05T21:45:11.222Z,62.37
2018-06-05T21:47:41.749Z,63.12
2018-06-05T21:50:11.967Z,63.03
2018-06-05T21:52:48.681Z,63.14
2018-06-05T21:55:21.713Z,64.01
2018-06-05T21:57:51.824Z,64.05
2018-06-05T22:00:23.108Z,63.33
2018-06-05T22:02:53.147Z,64.05
2018-06-05T22:05:23.422Z,63.42
2018-06-05T22:07:53.650Z,63.69
2018-06-05T22:10:23.731Z,63.96
2018-06-05T22:12:54.062Z,64.57
2018-06-05T22:15:24.402Z,64.25
2018-06-05T22:17:54.613Z,63.51
2018-06-05T22:20:24.841Z,63.82
2018-06-05T22:22:54.910Z,63.54
2018-06-05T22:25:25.180Z,64.31
2018-06-05T22:27:55.193Z,64.40
2018-06-05T22:30:25.620Z,63.47
2018-06-05T22:32:55.738Z,63.30
2018-06-05T22:35:25.910Z,63.31
2018-06-05T22:37:55.974Z,63.59
2018-06-05T22:40:26.209Z,63.30
2018-06-05T22:42:56.538Z,63.87
2018-06-05T22:45:26.675Z,63.23
2018-06-05T22:47:56.774Z,62.90
2018-06-05T22:50:26.936Z,63.06
2018-06-05T22:52:57.391Z,63.12
2018-06-05T22:55:27.584Z,63.16
2018-06-05T22:57:57.911Z,63.46
2018-06-05T23:00:32.996Z,63.78
2018-06-05T23:03:03.094Z,63.04
2018-06-05T23:05:33.378Z,63.51
2018-06-05T23:08:03.431Z,63.91
2018-06-05T23:10:33.575Z,64.02
2018-06-05T23:13:03.679Z,63.19
2018-06-05T23:15:33.923Z,63.81
2018-06-05T23:18:04.143Z,63.43
2018-06-05T23:20:34.368Z,63.58
2018-06-05T23:23:04.579Z,63.59
2018-06-05T23:25:34.645Z,63.64
2018-06-05T23:28:04.671Z,63.60
2018-06-05T23:30:36.778Z,63.74
2018-06-05T23:33:06.971Z,64.47
2018-06-05T23:35:37.341Z,63.74
2018-06-05T23:38:07.479Z,64.02
2018-06-05T23:40:37.670Z,63.76
2018-06-05T23:43:08.961Z,63.84
2018-06-05T23:45:39.040Z,63.73
2018-06-05T23:48:09.328Z,64.22
2018-06-05T23:50:39.398Z,64.45
2018-06-05T23:53:09.643Z,64.56
2018-06-05T23:55:40.794Z,64.05
2018-06-05T23:58:11.288Z,64.90
